Aviation Digital Data Service (ADDS)

Output produced by METARs form (2023 UTC 29 September 2016)
found at http://aviationweather.gov/adds/metars/
 
KCLE 291741Z 2918/3024 08010KT P6SM BKN012 OVC025 
     TEMPO 2918/2922 3SM -SHRA OVC012 
     FM292200 08012G20KT P6SM SCT008 OVC012 
     TEMPO 2922/3002 4SM -SHRA OVC008 
     FM300200 08012G22KT 5SM -SHRA OVC008 
     FM300500 08012G20KT P6SM OVC008 
     FM301500 08012KT P6SM BKN012 BKN025